Главная страница
METAR-TAF:

METAR-TAF

Аэропорты :

Любек, Германия

широта: 53-49N, долгота: 010-42E, высота над уровнем моря: 14 м

Текущие метеонаблюдения

Эта сводка был подготовлена 39 минут назад, в 11:20 UTC
Ветер 8 Узел от западный, изменяющийся между западный-юго-западный и северно-северо-западный
Температура 14°C
Влажность 63%
Давление 1015 hPa
Видимость 10 км и более
Отдельные облака на высоте 2500 фута
Рассеянная облачность на высоте 3300 фута

METAR: EDHL 251120Z 27008KT 240V330 9999 SCT025 BKN033 14/07 Q1015

Время: 13:59 (11:59 UTC)

Прогноз

Эта сводка был подготовлена 59 минут назад, в 11:00 UTC
Прогноз действительный с 25-го 12 UTC до 25-го 21 UTC
Ветер 8 Узел от западный
Видимость 10 км и более
Рассеянная облачность на высоте 3500 фута

TAF: EDHL 251100Z 2512/2521 28008KT 9999 BKN035

Метеонаблюдения и прогнозы для более 4000 аэропортов (сводки METAR и TAF).

Имеющиеся станции представлены на карте желтыми и красными точками.

Чтобы увидеть название станции, наведите на нее мышь.

Затем щелкните, чтобы увидеть метеонаблюдения и метеопрогнозы.

Управление картой: чтобы увеличить масштаб, щелкните зеленые кнопки с черным крестиком; чтобы уменьшить масштаб, щелкните зеленую кнопку с тире; для просмотра соседних карт щелкайте зеленые стрелки.


METAR-TAF: